Pagina principală
METAR-TAF:

METAR-TAF

Aeroporturi :

Alexandria, Louisiana, Statele Unite ale Americii

Latitudine: 31-23-42N, longitudine: 092-17-25W, elevație: 34 m

Observații meteo curente

Raportul a fost făcut în urmă cu 38 de minute, la 21:53 UTC
Vânt calm
Temperatură 34°C
Umiditate 47%
Presiune 1015 hPa
Vizibilitate: 16.1 km
Nori puțini la o înălțime de 6000 picior

METAR: KESF 222153Z AUTO 00000KT 10SM FEW060 34/21 A2997 RMK AO2 SLP145 T03390206

Ora: 17:31 (22:31 UTC)


TAF: lipsă

Observații și prognoze meteo pentru peste 4.000 de aeroporturi (rapoarte METAR și TAF).

Stațiile disponibile sunt reprezentate pe hartă prin puncte galbene și roșii.

Țineți indicatorul mouse-ului pe punctul dorit pentru a vedea denumirea stației.

Apoi, faceți clic pentru a vedea observațiile și prognozele meteorologice.

Pentru a schimba harta: Pentru mărire, faceți clic pe butoanele verzi cu cruce neagră; pentru micșorare, pe butonul verde cu o liniuță; pentru hărți învecinate, pe săgețile verzi.


METAR-TAF: